createdAt,value
2022-09-02T00:00:09.736Z,65.24
2022-09-02T00:02:57.633Z,65.14
2022-09-02T00:05:25.849Z,65.15
2022-09-02T00:07:55.185Z,65.05
2022-09-02T00:10:22.994Z,64.98
2022-09-02T00:12:50.815Z,65.11
2022-09-02T00:15:18.806Z,65.22
2022-09-02T00:23:52.963Z,65.89
2022-09-02T00:26:21.049Z,66.07
2022-09-02T00:28:55.768Z,66.11
2022-09-02T00:31:27.594Z,66.29
2022-09-02T00:33:56.460Z,66.34
2022-09-02T00:36:24.225Z,66.47
2022-09-02T00:38:52.658Z,66.64
2022-09-02T00:41:24.954Z,67.04
2022-09-02T00:44:16.220Z,67.34
2022-09-02T00:46:44.874Z,67.32
2022-09-02T00:49:31.113Z,67.52
2022-09-02T00:52:34.526Z,67.58
2022-09-02T00:55:13.430Z,67.63
2022-09-02T00:57:57.039Z,67.61
2022-09-02T01:00:34.777Z,67.78
2022-09-02T01:03:07.860Z,68.10
2022-09-02T01:05:45.690Z,68.05
2022-09-02T01:08:25.236Z,68.25
2022-09-02T01:10:55.969Z,68.39
2022-09-02T01:13:29.825Z,68.48
2022-09-02T01:16:29.970Z,68.58
2022-09-02T01:19:00.902Z,68.66
2022-09-02T01:21:28.737Z,68.72
2022-09-02T01:23:56.965Z,68.72
2022-09-02T01:26:24.810Z,68.76
2022-09-02T01:28:53.056Z,68.97
2022-09-02T01:31:20.921Z,69.02
2022-09-02T01:33:48.716Z,69.13
2022-09-02T01:36:17.371Z,69.22
2022-09-02T01:38:45.139Z,69.31
2022-09-02T01:41:12.943Z,69.43
2022-09-02T01:43:41.108Z,69.59
2022-09-02T01:46:09.206Z,69.72
2022-09-02T01:48:37.025Z,69.68
2022-09-02T01:51:05.148Z,69.66
2022-09-02T01:53:33.830Z,69.63
2022-09-02T01:56:01.741Z,69.56
2022-09-02T01:58:29.621Z,69.48
2022-09-02T02:00:57.549Z,69.37
2022-09-02T02:03:27.429Z,69.38
2022-09-02T02:05:56.698Z,69.41
2022-09-02T02:08:24.422Z,69.44
2022-09-02T02:10:52.224Z,69.40
2022-09-02T02:13:20.266Z,69.36
2022-09-02T02:15:48.175Z,69.28
2022-09-02T02:18:17.411Z,69.29
2022-09-02T02:20:45.327Z,69.31
2022-09-02T02:23:13.737Z,69.26
2022-09-02T02:25:41.864Z,69.16
2022-09-02T02:28:10.184Z,69.07
2022-09-02T02:30:38.455Z,69.10
2022-09-02T02:33:06.313Z,69.09
2022-09-02T02:35:34.090Z,69.05
2022-09-02T02:38:02.865Z,69.07
2022-09-02T02:40:32.115Z,69.07
2022-09-02T02:43:00.634Z,69.09
2022-09-02T02:45:28.946Z,69.13
2022-09-02T02:47:56.688Z,69.14
2022-09-02T02:50:26.978Z,69.24
2022-09-02T02:52:56.538Z,69.26
2022-09-02T02:55:25.472Z,69.31
2022-09-02T02:57:53.838Z,69.34
2022-09-02T03:00:29.011Z,69.39
2022-09-02T03:03:01.230Z,69.46
2022-09-02T03:05:33.993Z,69.48
2022-09-02T03:08:03.874Z,69.47
2022-09-02T03:10:33.518Z,69.52
2022-09-02T03:13:02.707Z,69.62
2022-09-02T03:15:30.783Z,69.72
2022-09-02T03:18:02.217Z,69.81
2022-09-02T03:20:31.325Z,69.82
2022-09-02T03:23:00.615Z,69.81
2022-09-02T03:25:35.561Z,69.81
2022-09-02T03:28:05.079Z,69.85
2022-09-02T03:30:34.876Z,69.94
2022-09-02T03:33:06.004Z,70.06
2022-09-02T03:35:39.637Z,70.16
2022-09-02T03:38:09.246Z,70.21
2022-09-02T03:40:37.317Z,70.40
2022-09-02T03:43:05.272Z,70.56
2022-09-02T03:45:33.199Z,70.53
2022-09-02T03:48:01.088Z,70.63
2022-09-02T03:50:37.837Z,70.83
2022-09-02T03:53:07.574Z,70.93
2022-09-02T03:55:38.002Z,71.12
2022-09-02T03:58:08.595Z,71.25
2022-09-02T04:00:38.197Z,71.39
2022-09-02T04:03:06.310Z,71.58
2022-09-02T04:05:34.363Z,71.72
2022-09-02T04:08:02.707Z,71.82
2022-09-02T04:10:30.552Z,71.95
2022-09-02T04:12:58.503Z,72.16
2022-09-02T04:15:31.393Z,72.23
2022-09-02T04:17:59.399Z,72.47
2022-09-02T04:20:28.305Z,72.65
2022-09-02T04:22:57.075Z,72.71
2022-09-02T04:25:27.744Z,72.85
2022-09-02T04:27:55.746Z,73.04
2022-09-02T04:30:25.518Z,72.86
2022-09-02T04:32:53.848Z,72.89
2022-09-02T04:35:21.708Z,72.95
2022-09-02T04:37:49.520Z,72.92
2022-09-02T04:40:17.887Z,72.93
2022-09-02T04:42:47.322Z,72.86
2022-09-02T04:45:15.200Z,72.78
2022-09-02T04:47:43.213Z,72.75
2022-09-02T04:50:13.812Z,72.77
2022-09-02T04:52:41.603Z,72.79
2022-09-02T04:55:10.937Z,72.80
2022-09-02T04:57:38.873Z,72.80
2022-09-02T05:00:10.934Z,72.65
2022-09-02T05:02:38.839Z,72.86
2022-09-02T05:05:07.809Z,72.93
2022-09-02T05:07:38.458Z,73.00
2022-09-02T05:10:07.658Z,73.00
2022-09-02T05:12:37.247Z,73.03
2022-09-02T05:15:07.350Z,73.21
2022-09-02T05:17:36.669Z,73.18
2022-09-02T05:20:07.467Z,73.49
2022-09-02T05:22:36.932Z,73.61
2022-09-02T05:25:07.615Z,73.69
2022-09-02T05:27:36.876Z,73.52
2022-09-02T05:30:07.808Z,73.70
2022-09-02T05:32:37.992Z,73.73
2022-09-02T05:35:06.648Z,73.83
2022-09-02T05:37:35.841Z,73.99
2022-09-02T05:40:05.749Z,74.22
2022-09-02T05:42:40.041Z,74.31
2022-09-02T05:45:09.211Z,74.14
2022-09-02T05:47:42.210Z,74.20
2022-09-02T05:50:10.535Z,74.47
2022-09-02T05:52:43.230Z,74.39
2022-09-02T05:55:11.250Z,74.32
2022-09-02T05:57:42.260Z,74.29
2022-09-02T06:00:11.555Z,74.14
2022-09-02T06:02:45.627Z,74.18
2022-09-02T06:05:13.556Z,74.15
2022-09-02T06:07:41.381Z,73.98
2022-09-02T06:10:09.178Z,73.76
2022-09-02T06:12:42.621Z,73.77
2022-09-02T06:15:12.482Z,73.71
2022-09-02T06:17:40.402Z,73.56
2022-09-02T06:20:08.742Z,73.38
2022-09-02T06:22:38.195Z,73.10
2022-09-02T06:25:06.410Z,72.59
2022-09-02T06:27:34.315Z,72.79
2022-09-02T06:30:02.630Z,72.12
2022-09-02T06:32:30.419Z,71.51
2022-09-02T06:34:58.231Z,71.26
2022-09-02T06:37:26.093Z,71.43
2022-09-02T06:39:54.255Z,70.65
2022-09-02T06:42:26.579Z,70.54
2022-09-02T06:44:54.593Z,70.51
2022-09-02T06:47:22.877Z,70.13
2022-09-02T06:49:51.030Z,69.86
2022-09-02T06:52:36.095Z,69.27
2022-09-02T06:55:04.865Z,69.13
2022-09-02T06:57:34.149Z,68.41
2022-09-02T07:00:10.269Z,68.05
2022-09-02T07:02:38.608Z,68.10
2022-09-02T07:05:10.000Z,67.47
2022-09-02T07:07:40.700Z,67.31
2022-09-02T07:10:14.710Z,67.01
2022-09-02T07:12:44.450Z,66.72
2022-09-02T07:15:12.817Z,66.64
2022-09-02T07:17:40.744Z,65.97
2022-09-02T07:20:09.192Z,65.08
2022-09-02T07:22:39.286Z,64.60
2022-09-02T07:25:10.125Z,63.20
2022-09-02T07:27:38.023Z,63.87
2022-09-02T07:30:06.854Z,63.52
2022-09-02T07:32:35.031Z,63.14
2022-09-02T07:35:06.459Z,62.02
2022-09-02T07:37:37.360Z,61.24
2022-09-02T07:40:08.354Z,60.59
2022-09-02T07:42:36.623Z,60.09
2022-09-02T07:45:05.159Z,60.16
2022-09-02T07:47:34.107Z,59.96
2022-09-02T07:50:21.786Z,58.04
2022-09-02T07:52:53.856Z,57.89
2022-09-02T07:55:23.834Z,57.53
2022-09-02T07:57:55.550Z,56.15
2022-09-02T08:00:27.814Z,55.50
2022-09-02T08:02:56.171Z,53.35
2022-09-02T08:05:25.016Z,51.79
2022-09-02T08:07:52.882Z,51.62
2022-09-02T08:10:20.840Z,51.67
2022-09-02T08:12:48.783Z,51.09
2022-09-02T08:15:19.965Z,50.48
2022-09-02T08:17:48.599Z,49.65
2022-09-02T08:20:18.399Z,49.45
2022-09-02T08:22:51.959Z,48.79
2022-09-02T08:25:29.028Z,49.27
2022-09-02T08:27:57.033Z,48.12
2022-09-02T08:30:24.977Z,45.63
2022-09-02T08:32:52.948Z,44.03
2022-09-02T08:35:21.328Z,43.50
2022-09-02T08:37:49.487Z,43.31
2022-09-02T08:40:24.258Z,43.95
2022-09-02T08:42:56.988Z,43.22
2022-09-02T08:45:38.961Z,43.19
2022-09-02T08:48:25.068Z,42.33
2022-09-02T08:50:59.229Z,42.81
2022-09-02T08:53:46.835Z,42.97
2022-09-02T08:56:17.866Z,42.43
2022-09-02T08:58:53.309Z,41.07
2022-09-02T09:01:44.514Z,40.74
2022-09-02T09:04:56.729Z,40.42
2022-09-02T09:07:40.490Z,39.87
2022-09-02T09:10:32.656Z,38.92
2022-09-02T09:13:20.771Z,38.65
2022-09-02T09:16:32.058Z,38.75
2022-09-02T09:19:36.484Z,36.54
2022-09-02T09:22:05.428Z,36.29
2022-09-02T09:24:41.209Z,35.41
2022-09-02T09:27:19.481Z,35.37
2022-09-02T09:29:49.256Z,34.92
2022-09-02T09:32:36.757Z,34.47
2022-09-02T09:35:15.906Z,33.39
2022-09-02T09:37:50.330Z,33.42
2022-09-02T09:40:18.233Z,33.12
2022-09-02T09:42:49.832Z,33.04
2022-09-02T09:45:34.513Z,33.33
2022-09-02T09:48:30.724Z,33.25
2022-09-02T09:50:58.640Z,32.75
2022-09-02T09:53:30.058Z,32.81
2022-09-02T09:56:27.304Z,32.74
2022-09-02T09:58:55.270Z,32.97
2022-09-02T10:01:33.540Z,32.49
2022-09-02T10:04:45.606Z,32.04
2022-09-02T10:07:16.151Z,31.78
2022-09-02T10:09:43.958Z,32.00
2022-09-02T10:12:13.193Z,31.11
2022-09-02T10:14:49.245Z,31.57
2022-09-02T10:17:45.460Z,31.27
2022-09-02T10:20:37.133Z,31.21
2022-09-02T10:23:42.615Z,31.37
2022-09-02T10:26:37.959Z,31.58
2022-09-02T10:29:39.751Z,30.40
2022-09-02T10:32:14.788Z,29.77
2022-09-02T10:43:56.705Z,30.53
2022-09-02T10:46:26.069Z,29.87
2022-09-02T10:49:16.276Z,29.45
2022-09-02T10:52:08.274Z,30.33
2022-09-02T10:55:05.062Z,30.16
2022-09-02T10:57:38.986Z,29.45
2022-09-02T11:00:18.642Z,29.41
2022-09-02T11:02:59.135Z,29.61
2022-09-02T11:06:08.507Z,28.55
2022-09-02T11:08:44.493Z,29.00
2022-09-02T11:11:29.739Z,28.75
2022-09-02T11:14:15.747Z,29.45
2022-09-02T11:17:22.041Z,29.64
2022-09-02T11:19:51.633Z,30.19
2022-09-02T11:22:40.047Z,29.77
2022-09-02T11:25:22.231Z,29.89
2022-09-02T11:28:05.917Z,29.46
2022-09-02T11:31:22.542Z,29.72
2022-09-02T11:36:39.866Z,30.96
2022-09-02T11:40:06.655Z,30.54
2022-09-02T11:42:46.455Z,31.00
2022-09-02T11:45:47.099Z,31.06
2022-09-02T11:48:36.996Z,31.50
2022-09-02T11:51:31.782Z,31.18
2022-09-02T11:54:04.675Z,31.15
2022-09-02T11:56:41.333Z,30.94
2022-09-02T11:59:20.773Z,30.99
2022-09-02T12:01:54.820Z,31.05
2022-09-02T12:07:14.813Z,31.85
2022-09-02T12:09:48.828Z,32.27
2022-09-02T12:12:40.217Z,32.88
2022-09-02T12:15:18.186Z,32.87
2022-09-02T12:17:47.854Z,33.08
2022-09-02T12:20:41.732Z,33.49
2022-09-02T12:23:47.943Z,33.76
2022-09-02T12:26:18.580Z,34.03
2022-09-02T12:28:48.612Z,33.58
2022-09-02T12:31:21.724Z,33.04
2022-09-02T12:33:52.001Z,33.17
2022-09-02T12:36:36.828Z,33.58
2022-09-02T12:39:23.305Z,33.59
2022-09-02T12:41:58.445Z,33.43
2022-09-02T12:44:39.703Z,33.40
2022-09-02T12:47:26.614Z,33.69
2022-09-02T12:50:05.582Z,34.17
2022-09-02T12:52:34.576Z,34.47
2022-09-02T12:55:22.600Z,34.97
2022-09-02T12:57:55.238Z,33.70
2022-09-02T13:00:37.846Z,33.98
2022-09-02T13:03:26.868Z,33.62
2022-09-02T13:06:44.544Z,33.42
2022-09-02T13:09:58.087Z,33.91
2022-09-02T13:13:37.409Z,34.13
2022-09-02T13:16:15.587Z,34.25
2022-09-02T13:19:12.792Z,34.21
2022-09-02T13:22:20.504Z,34.43
2022-09-02T13:25:41.754Z,34.87
2022-09-02T13:28:43.885Z,35.23
2022-09-02T13:31:25.501Z,35.42
2022-09-02T13:34:09.554Z,35.81
2022-09-02T13:36:45.237Z,35.82
2022-09-02T13:39:19.022Z,35.37
2022-09-02T13:41:47.880Z,35.76
2022-09-02T13:44:31.173Z,35.05
2022-09-02T13:47:04.536Z,34.97
2022-09-02T13:49:41.419Z,34.80
2022-09-02T13:52:19.440Z,34.90
2022-09-02T13:54:54.695Z,35.08
2022-09-02T13:57:28.144Z,35.04
2022-09-02T13:59:57.710Z,35.21
2022-09-02T14:02:37.150Z,35.33
2022-09-02T14:05:11.972Z,35.24
2022-09-02T14:07:49.969Z,35.63
2022-09-02T14:10:23.015Z,35.47
2022-09-02T14:12:51.309Z,35.17
2022-09-02T14:15:28.292Z,35.32
2022-09-02T14:18:20.908Z,35.68
2022-09-02T14:21:04.251Z,35.82
2022-09-02T14:23:33.740Z,36.16
2022-09-02T14:26:03.367Z,36.78
2022-09-02T14:28:34.035Z,37.03
2022-09-02T14:31:06.592Z,37.31
2022-09-02T14:33:45.449Z,37.73
2022-09-02T14:36:17.948Z,37.17
2022-09-02T14:38:46.319Z,36.78
2022-09-02T14:41:17.370Z,36.98
2022-09-02T14:43:50.457Z,37.11
2022-09-02T14:46:31.654Z,37.07
2022-09-02T14:49:23.261Z,37.31
2022-09-02T14:51:56.894Z,37.47
2022-09-02T14:54:41.108Z,37.14
2022-09-02T14:57:21.219Z,37.50
2022-09-02T14:59:50.355Z,37.72
2022-09-02T15:02:28.067Z,37.47
2022-09-02T15:04:59.253Z,37.81
2022-09-02T15:07:28.231Z,37.73
2022-09-02T15:09:56.437Z,37.75
2022-09-02T15:12:38.000Z,37.82
2022-09-02T15:15:06.846Z,37.85
2022-09-02T15:17:34.788Z,37.44
2022-09-02T15:20:11.140Z,37.39
2022-09-02T15:22:43.149Z,37.78
2022-09-02T15:25:11.791Z,38.20
2022-09-02T15:27:39.624Z,38.34
2022-09-02T15:30:09.554Z,38.61
2022-09-02T15:32:38.054Z,38.81
2022-09-02T15:35:07.842Z,38.97
2022-09-02T15:37:39.403Z,38.96
2022-09-02T15:40:08.847Z,39.05
2022-09-02T15:42:39.094Z,38.94
2022-09-02T15:45:09.281Z,39.21
2022-09-02T15:47:38.399Z,38.85
2022-09-02T15:50:06.721Z,38.86
2022-09-02T15:52:36.234Z,38.24
2022-09-02T15:55:04.556Z,38.70
2022-09-02T15:57:32.737Z,38.67
2022-09-02T16:00:00.511Z,38.32
2022-09-02T16:02:28.502Z,38.40
2022-09-02T16:04:57.251Z,38.34
2022-09-02T16:07:25.433Z,38.36
2022-09-02T16:09:53.286Z,38.67
2022-09-02T16:12:21.262Z,38.74
2022-09-02T16:14:51.279Z,39.01
2022-09-02T16:17:19.315Z,39.07
2022-09-02T16:19:47.329Z,39.10
2022-09-02T16:22:15.404Z,39.24
2022-09-02T16:24:45.004Z,39.61
2022-09-02T16:27:12.905Z,39.77
2022-09-02T16:29:41.854Z,40.13
2022-09-02T16:32:27.342Z,40.39
2022-09-02T16:34:58.309Z,40.44
2022-09-02T16:37:26.252Z,40.57
2022-09-02T16:39:54.147Z,40.64
2022-09-02T16:42:22.149Z,40.86
2022-09-02T16:44:52.950Z,41.02
2022-09-02T16:47:20.824Z,41.10
2022-09-02T16:49:48.628Z,41.26
2022-09-02T16:52:16.689Z,41.59
2022-09-02T16:54:44.589Z,41.80
2022-09-02T16:57:12.522Z,42.01
2022-09-02T16:59:41.765Z,42.10
2022-09-02T17:02:26.081Z,42.34
2022-09-02T17:04:55.852Z,42.37
2022-09-02T17:07:23.999Z,42.54
2022-09-02T17:10:18.094Z,42.56
2022-09-02T17:12:46.955Z,42.55
2022-09-02T17:15:15.766Z,42.77
2022-09-02T17:17:43.943Z,42.91
2022-09-02T17:20:13.376Z,43.00
2022-09-02T17:22:44.672Z,43.24
2022-09-02T17:25:13.137Z,43.32
2022-09-02T17:27:42.257Z,43.30
2022-09-02T17:30:15.684Z,43.39
2022-09-02T17:32:44.013Z,43.51
2022-09-02T17:35:12.406Z,43.62
2022-09-02T17:37:48.466Z,43.84
2022-09-02T17:40:35.075Z,43.91
2022-09-02T17:43:03.493Z,44.22
2022-09-02T17:45:32.148Z,44.40
2022-09-02T17:48:19.212Z,44.56
2022-09-02T17:50:50.099Z,44.68
2022-09-02T17:53:19.399Z,44.83
2022-09-02T17:55:48.263Z,45.10
2022-09-02T17:58:20.779Z,45.26
2022-09-02T18:00:58.494Z,45.31
2022-09-02T18:04:26.688Z,45.56
2022-09-02T18:07:04.914Z,45.83
2022-09-02T18:09:33.104Z,46.28
2022-09-02T18:12:04.703Z,46.89
2022-09-02T18:14:41.017Z,47.01
2022-09-02T18:17:47.343Z,46.88
2022-09-02T18:20:43.680Z,46.90
2022-09-02T18:23:57.411Z,47.32
2022-09-02T18:27:52.353Z,47.38
2022-09-02T18:30:52.461Z,47.69
2022-09-02T18:34:05.761Z,48.06
2022-09-02T18:37:21.559Z,48.02
2022-09-02T18:40:18.130Z,48.30
2022-09-02T18:43:37.773Z,48.73
2022-09-02T18:46:09.426Z,48.71
2022-09-02T18:48:40.185Z,49.00
2022-09-02T18:51:15.345Z,49.28
2022-09-02T18:53:49.715Z,49.62
2022-09-02T18:56:21.190Z,49.81
2022-09-02T18:58:57.902Z,49.98
2022-09-02T19:01:31.222Z,50.40
2022-09-02T19:03:59.612Z,50.61
2022-09-02T19:06:36.306Z,50.74
2022-09-02T19:09:08.323Z,50.75
2022-09-02T19:11:47.304Z,50.93
2022-09-02T19:14:27.104Z,51.21
2022-09-02T19:16:58.637Z,51.28
2022-09-02T19:19:30.269Z,51.58
2022-09-02T19:22:09.464Z,51.75
2022-09-02T19:24:51.508Z,52.29
2022-09-02T19:27:22.324Z,52.54
2022-09-02T19:29:54.404Z,53.13
2022-09-02T19:32:32.082Z,53.48
2022-09-02T19:35:02.566Z,53.33
2022-09-02T19:37:32.163Z,53.04
2022-09-02T19:40:09.856Z,53.34
2022-09-02T19:42:43.450Z,53.68
2022-09-02T19:45:16.376Z,53.92
2022-09-02T19:48:06.044Z,53.97
2022-09-02T19:50:33.294Z,54.48
2022-09-02T19:53:04.494Z,54.60
2022-09-02T19:55:35.949Z,54.54
2022-09-02T19:58:04.725Z,54.51
2022-09-02T20:00:34.375Z,55.00
2022-09-02T20:03:10.486Z,55.07
2022-09-02T20:05:44.584Z,55.25
2022-09-02T20:08:18.590Z,55.41
2022-09-02T20:11:14.873Z,55.56
2022-09-02T20:13:52.027Z,55.62
2022-09-02T20:16:24.435Z,55.98
2022-09-02T20:18:58.530Z,56.11
2022-09-02T20:21:32.126Z,56.06
2022-09-02T20:24:08.771Z,56.11
2022-09-02T20:27:17.589Z,56.37
2022-09-02T20:30:09.280Z,56.17
2022-09-02T20:33:05.559Z,56.65
2022-09-02T20:36:12.377Z,56.78
2022-09-02T20:39:12.086Z,56.61
2022-09-02T20:41:48.692Z,56.78
2022-09-02T20:50:47.883Z,57.41
2022-09-02T20:53:37.401Z,57.70
2022-09-02T20:56:50.026Z,57.66
2022-09-02T20:59:40.658Z,57.76
2022-09-02T21:02:11.570Z,57.91
2022-09-02T21:04:46.282Z,58.30
2022-09-02T21:08:00.111Z,58.40
2022-09-02T21:10:36.802Z,58.62
2022-09-02T21:13:32.416Z,58.82
2022-09-02T21:16:11.925Z,58.90
2022-09-02T21:19:06.407Z,58.99
2022-09-02T21:21:54.760Z,59.09
2022-09-02T21:24:37.199Z,59.14
2022-09-02T21:27:19.451Z,59.57
2022-09-02T21:30:03.560Z,59.70
2022-09-02T21:32:41.560Z,60.07
2022-09-02T21:35:14.674Z,60.22
2022-09-02T21:37:45.098Z,60.52
2022-09-02T21:40:18.489Z,61.09
2022-09-02T21:43:37.429Z,61.12
2022-09-02T21:46:24.255Z,61.74
2022-09-02T21:49:24.732Z,62.01
2022-09-02T21:52:08.830Z,62.05
2022-09-02T21:55:46.911Z,62.24
2022-09-02T21:58:43.746Z,62.27
2022-09-02T22:01:56.045Z,62.65
2022-09-02T22:04:54.589Z,62.69
2022-09-02T22:07:44.405Z,63.21
2022-09-02T22:10:31.489Z,63.25
2022-09-02T22:13:03.350Z,63.78
2022-09-02T22:15:44.895Z,64.14
2022-09-02T22:18:31.879Z,63.74
2022-09-02T22:21:07.563Z,63.89
2022-09-02T22:23:36.513Z,64.05
2022-09-02T22:26:30.220Z,63.92
2022-09-02T22:29:03.696Z,64.15
2022-09-02T22:31:36.112Z,64.46
2022-09-02T22:34:08.105Z,64.76
2022-09-02T22:36:52.326Z,65.15
2022-09-02T22:39:24.876Z,65.12
2022-09-02T22:42:04.303Z,65.18
2022-09-02T22:45:03.885Z,65.08
2022-09-02T22:47:52.772Z,65.12
2022-09-02T22:50:45.562Z,65.50
2022-09-02T22:53:13.789Z,65.68
2022-09-02T22:56:11.600Z,65.90
2022-09-02T22:59:11.743Z,66.16
2022-09-02T23:02:46.806Z,66.06
2022-09-02T23:14:51.529Z,66.31
2022-09-02T23:17:47.750Z,66.23
2022-09-02T23:20:44.710Z,66.16
2022-09-02T23:23:22.949Z,66.29
2022-09-02T23:26:21.044Z,66.28
2022-09-02T23:29:15.626Z,66.16
2022-09-02T23:31:59.181Z,66.44
2022-09-02T23:35:08.392Z,66.45
2022-09-02T23:37:45.178Z,66.64
2022-09-02T23:40:43.630Z,66.68
2022-09-02T23:43:16.694Z,66.48
2022-09-02T23:45:46.976Z,66.70
2022-09-02T23:48:44.263Z,66.99
2022-09-02T23:51:27.774Z,66.99
2022-09-02T23:54:21.321Z,67.04
2022-09-02T23:57:34.683Z,67.01
